Time;durP1;ratioP1;P1;durP2;ratioP2;P2;SDS_P1;SDS_P2;PMS_P1;PMS_P2;Temp;Humidity;BMP_temperature;BMP_pressure;BME280_temperature;BME280_humidity;BME280_pressure;Samples;Min_cycle;Max_cycle;Signal;HPM_P1;HPM_P2
2023/07/02 00:00:19;;;;;;;1.43;1.20;;;16.80;99.90;;;;;;5092282;28;20632;-73
2023/07/02 00:02:46;;;;;;;1.37;1.27;;;16.70;99.90;;;;;;5090523;28;20654;-74
2023/07/02 00:05:12;;;;;;;1.90;1.40;;;16.70;99.90;;;;;;5092858;28;21169;-74
2023/07/02 00:07:40;;;;;;;1.77;1.50;;;16.60;99.90;;;;;;5092298;28;21043;-73
2023/07/02 00:10:08;;;;;;;1.60;1.50;;;16.60;99.90;;;;;;5094528;28;20663;-73
2023/07/02 00:12:34;;;;;;;1.30;1.20;;;16.60;99.90;;;;;;5097014;28;20630;-74
2023/07/02 00:15:02;;;;;;;1.37;1.27;;;16.60;99.90;;;;;;5090478;28;20632;-73
2023/07/02 00:17:28;;;;;;;2.20;1.80;;;16.70;99.90;;;;;;5094891;28;20624;-74
2023/07/02 00:19:55;;;;;;;1.97;1.40;;;16.60;99.90;;;;;;5092625;28;21181;-74
2023/07/02 00:22:22;;;;;;;1.23;1.03;;;16.50;99.90;;;;;;5091903;28;21228;-74
2023/07/02 00:24:51;;;;;;;1.67;1.27;;;16.50;99.90;;;;;;5093495;28;20715;-73
2023/07/02 00:27:18;;;;;;;1.40;1.30;;;16.50;99.90;;;;;;5092693;28;20613;-74
2023/07/02 00:29:45;;;;;;;2.17;1.93;;;16.50;99.90;;;;;;5094494;28;20627;-73
2023/07/02 00:32:12;;;;;;;1.70;1.23;;;16.40;99.90;;;;;;5093041;28;21207;-73
2023/07/02 00:34:38;;;;;;;2.13;1.30;;;16.40;99.90;;;;;;5094522;28;21173;-73
2023/07/02 00:37:05;;;;;;;2.50;1.33;;;16.40;99.90;;;;;;5104439;28;20630;-73
2023/07/02 00:39:32;;;;;;;1.53;1.43;;;16.30;99.90;;;;;;5094211;28;20619;-73
2023/07/02 00:42:04;;;;;;;1.33;1.23;;;16.30;99.90;;;;;;5097178;28;20627;-73
2023/07/02 00:44:30;;;;;;;0.93;0.93;;;16.20;99.90;;;;;;5101951;28;20624;-73
2023/07/02 00:46:57;;;;;;;1.90;1.60;;;16.30;99.90;;;;;;5091510;28;20627;-74
2023/07/02 00:49:25;;;;;;;1.50;1.37;;;16.30;99.90;;;;;;5097326;28;21062;-73
2023/07/02 00:51:52;;;;;;;1.60;1.50;;;16.30;99.90;;;;;;5092779;28;20656;-73
2023/07/02 00:54:18;;;;;;;1.33;1.27;;;16.40;99.90;;;;;;5093027;28;20620;-73
2023/07/02 00:56:45;;;;;;;1.87;1.40;;;16.30;99.90;;;;;;5094339;28;20631;-74
2023/07/02 00:59:14;;;;;;;2.30;1.53;;;16.30;99.90;;;;;;5093362;28;20625;-73
2023/07/02 01:01:40;;;;;;;1.93;1.50;;;16.30;99.90;;;;;;5095056;28;20625;-73
2023/07/02 01:04:09;;;;;;;2.03;1.77;;;16.30;99.90;;;;;;5098832;28;20624;-74
2023/07/02 01:06:41;;;;;;;1.53;1.43;;;16.30;99.90;;;;;;5091917;28;20632;-74
2023/07/02 01:09:08;;;;;;;1.47;1.07;;;16.30;99.90;;;;;;5094678;28;20624;-73
2023/07/02 01:11:39;;;;;;;1.70;1.60;;;16.30;99.90;;;;;;5095518;28;21002;-74
2023/07/02 01:14:10;;;;;;;1.70;1.60;;;16.30;99.90;;;;;;5095518;28;20622;-74
2023/07/02 01:16:43;;;;;;;2.00;1.57;;;16.40;99.90;;;;;;5095188;28;20724;-74
2023/07/02 01:19:18;;;;;;;1.30;1.20;;;16.40;99.90;;;;;;5098375;28;20687;-73
2023/07/02 01:21:48;;;;;;;1.43;1.27;;;16.40;99.90;;;;;;5087701;28;20614;-73
2023/07/02 01:24:16;;;;;;;1.37;1.17;;;16.30;99.90;;;;;;5088889;28;20636;-73
2023/07/02 01:26:45;;;;;;;2.63;1.53;;;16.30;99.90;;;;;;5089033;28;21265;-73
2023/07/02 01:29:17;;;;;;;1.83;1.70;;;16.20;99.90;;;;;;5087232;28;20641;-73
2023/07/02 01:31:45;;;;;;;1.37;1.27;;;16.20;99.90;;;;;;5099461;28;20653;-74
2023/07/02 01:34:12;;;;;;;1.20;1.07;;;16.30;99.90;;;;;;5092684;28;20719;-74
2023/07/02 01:36:40;;;;;;;3.57;1.60;;;16.20;99.90;;;;;;5094047;28;21290;-73
2023/07/02 01:39:09;;;;;;;2.50;2.17;;;16.20;99.90;;;;;;5098508;28;21059;-73
2023/07/02 01:41:43;;;;;;;1.83;1.73;;;16.20;99.90;;;;;;5098359;28;20620;-74
2023/07/02 01:44:11;;;;;;;1.53;1.43;;;16.20;99.90;;;;;;5098292;28;20624;-74
2023/07/02 01:46:39;;;;;;;1.30;1.20;;;16.20;99.90;;;;;;5100274;28;20640;-74
2023/07/02 01:49:06;;;;;;;2.00;1.90;;;16.10;99.90;;;;;;5090285;28;20992;-74
2023/07/02 01:51:35;;;;;;;1.63;1.50;;;16.20;99.90;;;;;;5099246;28;20647;-74
2023/07/02 01:54:03;;;;;;;1.57;1.47;;;16.20;99.90;;;;;;5092429;28;20628;-74
2023/07/02 01:56:32;;;;;;;1.17;1.17;;;16.10;99.90;;;;;;5092731;28;20660;-74
2023/07/02 01:58:59;;;;;;;1.83;1.70;;;15.90;99.90;;;;;;5086274;28;20625;-73
2023/07/02 02:01:30;;;;;;;1.40;1.30;;;15.80;99.90;;;;;;5094814;28;20975;-74
2023/07/02 02:03:57;;;;;;;1.20;1.07;;;15.90;99.90;;;;;;5091588;28;20984;-74
2023/07/02 02:06:25;;;;;;;1.77;1.57;;;15.80;99.90;;;;;;5096804;28;21284;-73
2023/07/02 02:08:52;;;;;;;2.20;1.53;;;15.80;99.90;;;;;;5092327;28;20955;-73
2023/07/02 02:11:19;;;;;;;1.67;1.37;;;15.90;99.90;;;;;;5090251;28;20652;-74
2023/07/02 02:13:48;;;;;;;1.50;1.40;;;16.00;99.90;;;;;;5094400;28;20971;-74
2023/07/02 02:16:15;;;;;;;1.37;1.27;;;16.00;99.90;;;;;;5098354;28;20628;-74
2023/07/02 02:18:42;;;;;;;2.13;1.13;;;16.00;99.90;;;;;;5096656;28;20648;-74
2023/07/02 02:21:09;;;;;;;1.00;1.00;;;16.00;99.90;;;;;;5091439;28;20609;-74
2023/07/02 02:23:36;;;;;;;1.73;1.33;;;15.90;99.90;;;;;;5098984;28;20620;-74
2023/07/02 02:26:04;;;;;;;1.67;1.20;;;16.00;99.90;;;;;;5095381;28;20624;-74
2023/07/02 02:28:31;;;;;;;1.90;1.47;;;16.00;99.90;;;;;;5100293;28;20660;-74
2023/07/02 02:31:00;;;;;;;1.43;1.30;;;16.00;99.90;;;;;;5090203;28;20755;-74
2023/07/02 02:33:28;;;;;;;1.30;1.20;;;16.10;99.90;;;;;;5091265;28;20716;-74
2023/07/02 02:35:56;;;;;;;1.30;1.20;;;16.20;99.90;;;;;;5099053;28;20620;-74
2023/07/02 02:38:23;;;;;;;1.20;1.10;;;16.20;99.90;;;;;;5095265;28;20678;-74
2023/07/02 02:40:50;;;;;;;1.43;1.33;;;16.10;99.90;;;;;;5091719;28;20619;-74
2023/07/02 02:43:17;;;;;;;1.30;1.20;;;16.10;99.90;;;;;;5092474;28;20623;-73
2023/07/02 02:45:44;;;;;;;0.90;0.90;;;16.40;99.90;;;;;;5093078;28;20617;-74
2023/07/02 02:48:13;;;;;;;2.13;1.70;;;16.20;99.90;;;;;;5095736;28;20731;-74
2023/07/02 02:50:42;;;;;;;1.77;1.30;;;16.20;99.90;;;;;;5093107;28;20653;-74
2023/07/02 02:53:11;;;;;;;1.77;1.30;;;16.20;99.90;;;;;;5089047;28;20617;-73
2023/07/02 02:55:39;;;;;;;1.87;1.77;;;16.10;99.90;;;;;;5092617;28;20621;-74
2023/07/02 02:58:07;;;;;;;1.43;1.33;;;16.10;99.90;;;;;;5089557;28;20633;-73
2023/07/02 03:00:34;;;;;;;1.80;1.50;;;16.00;99.90;;;;;;5087716;28;20627;-73
2023/07/02 03:03:03;;;;;;;1.00;1.00;;;16.10;99.90;;;;;;5090854;28;21033;-73
2023/07/02 03:05:33;;;;;;;1.33;1.27;;;16.10;99.90;;;;;;5091778;28;20685;-73
2023/07/02 03:08:00;;;;;;;1.77;1.37;;;16.20;99.90;;;;;;5091085;28;20974;-73
2023/07/02 03:10:28;;;;;;;1.73;1.43;;;16.20;99.90;;;;;;5081561;28;20625;-73
2023/07/02 03:12:55;;;;;;;1.50;1.30;;;16.20;99.90;;;;;;5088837;28;20991;-73
2023/07/02 03:15:22;;;;;;;1.67;1.50;;;16.20;99.90;;;;;;5095964;28;20632;-73
2023/07/02 03:17:49;;;;;;;0.93;0.90;;;16.10;99.90;;;;;;5093770;28;20736;-74
2023/07/02 03:20:16;;;;;;;1.67;1.37;;;16.10;99.90;;;;;;5093255;28;20670;-74
2023/07/02 03:22:44;;;;;;;1.10;1.10;;;16.10;99.90;;;;;;5095168;28;20640;-74
2023/07/02 03:25:11;;;;;;;1.23;1.13;;;16.00;99.90;;;;;;5091961;28;20976;-73
2023/07/02 03:27:38;;;;;;;1.30;1.20;;;15.90;99.90;;;;;;5094959;28;20650;-73
2023/07/02 03:30:06;;;;;;;1.17;1.13;;;15.80;99.90;;;;;;5094144;28;20946;-73
2023/07/02 03:32:33;;;;;;;1.30;1.20;;;15.70;99.90;;;;;;5090448;28;20657;-74
2023/07/02 03:35:01;;;;;;;2.73;1.30;;;15.60;99.90;;;;;;5094521;28;20623;-73
2023/07/02 03:37:27;;;;;;;1.87;1.77;;;15.60;99.90;;;;;;5095397;28;20628;-73
2023/07/02 03:39:56;;;;;;;1.90;1.80;;;15.50;99.90;;;;;;5096028;28;20620;-72
2023/07/02 03:42:22;;;;;;;1.63;1.53;;;15.40;99.90;;;;;;5099811;28;20631;-74
2023/07/02 03:44:49;;;;;;;3.07;1.27;;;15.40;99.90;;;;;;5094267;28;20605;-73
2023/07/02 03:47:19;;;;;;;2.30;1.00;;;15.30;99.90;;;;;;5100361;28;20624;-73
2023/07/02 03:49:46;;;;;;;1.50;1.33;;;15.20;99.90;;;;;;5102264;28;20682;-73
2023/07/02 03:52:12;;;;;;;1.43;1.33;;;15.10;99.90;;;;;;5095221;28;20679;-73
2023/07/02 03:54:39;;;;;;;1.37;1.27;;;15.10;99.90;;;;;;5099085;28;20609;-73
2023/07/02 03:57:07;;;;;;;2.10;1.83;;;15.00;99.90;;;;;;5097614;28;20987;-73
2023/07/02 03:59:35;;;;;;;1.60;1.30;;;14.90;99.90;;;;;;5088945;28;20628;-73
2023/07/02 04:02:02;;;;;;;1.73;1.10;;;14.90;99.90;;;;;;5094888;28;20624;-73
2023/07/02 04:04:28;;;;;;;1.80;1.70;;;14.90;99.90;;;;;;5093778;28;20624;-72
2023/07/02 04:06:55;;;;;;;1.43;1.33;;;14.70;99.90;;;;;;5099587;28;20747;-73
2023/07/02 04:09:22;;;;;;;2.77;1.30;;;14.80;99.90;;;;;;5093947;28;20621;-73
2023/07/02 04:11:49;;;;;;;2.37;1.47;;;14.80;99.90;;;;;;5099335;28;20690;-73
2023/07/02 04:14:17;;;;;;;1.53;1.30;;;14.80;99.90;;;;;;5099106;28;20630;-73
2023/07/02 04:16:45;;;;;;;3.53;1.83;;;14.70;99.90;;;;;;5100479;28;20635;-73
2023/07/02 04:19:12;;;;;;;1.90;1.30;;;14.80;99.90;;;;;;5092829;28;20621;-73
2023/07/02 04:21:39;;;;;;;1.97;1.57;;;14.80;99.90;;;;;;5094037;28;20648;-73
2023/07/02 04:24:06;;;;;;;2.17;2.00;;;14.80;99.90;;;;;;5099019;28;20631;-73
2023/07/02 04:26:32;;;;;;;1.83;1.60;;;14.90;99.90;;;;;;5095032;28;21196;-73
2023/07/02 04:28:59;;;;;;;1.50;1.40;;;14.90;99.90;;;;;;5092979;28;20946;-73
2023/07/02 04:31:28;;;;;;;4.70;1.60;;;15.00;99.90;;;;;;5093443;28;20652;-73
2023/07/02 04:33:54;;;;;;;1.53;1.43;;;15.10;99.90;;;;;;5092895;28;20628;-73
2023/07/02 04:36:21;;;;;;;3.40;1.70;;;15.10;99.90;;;;;;5093707;28;20628;-73
2023/07/02 04:38:48;;;;;;;1.70;1.40;;;15.10;99.90;;;;;;5093135;28;20616;-73
2023/07/02 04:41:15;;;;;;;2.20;1.90;;;15.00;99.90;;;;;;5093277;28;20627;-73
2023/07/02 04:43:42;;;;;;;1.70;1.60;;;15.10;99.90;;;;;;5101390;28;20622;-73
2023/07/02 04:46:08;;;;;;;2.23;1.80;;;15.10;99.90;;;;;;5097177;28;20620;-73
2023/07/02 04:48:37;;;;;;;2.27;1.73;;;15.20;99.90;;;;;;5096296;28;20942;-73
2023/07/02 04:51:03;;;;;;;1.87;1.60;;;15.10;99.90;;;;;;5098695;28;20636;-73
2023/07/02 04:53:30;;;;;;;1.93;1.73;;;15.10;99.90;;;;;;5104653;28;20654;-73
2023/07/02 04:55:58;;;;;;;1.90;1.60;;;15.10;99.90;;;;;;5097770;28;20687;-73
2023/07/02 04:58:24;;;;;;;2.20;2.10;;;15.10;99.90;;;;;;5089248;28;20671;-73
2023/07/02 05:00:51;;;;;;;1.50;1.40;;;15.10;99.90;;;;;;5093280;28;20620;-73
2023/07/02 05:03:18;;;;;;;2.27;1.40;;;15.20;99.90;;;;;;5095354;28;20617;-73
2023/07/02 05:05:46;;;;;;;2.50;1.77;;;15.20;99.90;;;;;;5093865;28;20613;-73
2023/07/02 05:08:13;;;;;;;1.40;1.13;;;15.40;99.90;;;;;;5092953;28;20774;-73
2023/07/02 05:10:39;;;;;;;2.43;1.13;;;15.50;99.90;;;;;;5089497;28;20628;-73
2023/07/02 05:13:06;;;;;;;1.57;1.47;;;15.60;99.90;;;;;;5094958;28;20657;-73
2023/07/02 05:15:33;;;;;;;1.77;1.67;;;15.70;99.90;;;;;;5099279;28;20624;-73
2023/07/02 05:18:00;;;;;;;1.43;1.30;;;15.70;99.90;;;;;;5097272;28;20660;-73
2023/07/02 05:20:27;;;;;;;2.23;2.03;;;15.70;99.90;;;;;;5092725;28;20620;-73
2023/07/02 05:22:55;;;;;;;2.17;1.97;;;15.80;99.90;;;;;;5103520;28;20736;-73
2023/07/02 05:25:21;;;;;;;3.50;2.63;;;15.80;99.90;;;;;;5092142;28;20617;-73
2023/07/02 05:27:48;;;;;;;2.23;1.80;;;15.80;99.90;;;;;;5093080;28;20629;-73
2023/07/02 05:30:15;;;;;;;3.10;1.60;;;15.90;99.90;;;;;;5092482;28;20624;-73
2023/07/02 05:32:43;;;;;;;1.70;1.60;;;15.90;99.90;;;;;;5093875;28;20663;-73
2023/07/02 05:35:11;;;;;;;3.70;1.93;;;15.90;99.90;;;;;;5097597;28;20642;-73
2023/07/02 05:37:38;;;;;;;2.50;1.83;;;15.70;99.90;;;;;;5092271;28;20633;-73
2023/07/02 05:40:07;;;;;;;2.43;1.40;;;15.70;99.90;;;;;;5095248;28;21165;-73
2023/07/02 05:42:36;;;;;;;1.90;1.80;;;15.60;99.90;;;;;;5091876;28;21412;-73
2023/07/02 05:45:02;;;;;;;3.57;2.50;;;15.70;99.90;;;;;;5085594;28;20624;-73
2023/07/02 05:47:29;;;;;;;2.17;1.97;;;15.60;99.90;;;;;;5104464;28;20620;-73
2023/07/02 05:49:56;;;;;;;2.10;1.60;;;15.60;99.90;;;;;;5092676;28;20613;-73
2023/07/02 05:52:23;;;;;;;3.70;1.53;;;15.60;99.90;;;;;;5090503;28;20752;-73
2023/07/02 05:54:50;;;;;;;1.60;1.50;;;15.80;99.90;;;;;;5098171;28;21266;-73
2023/07/02 05:57:19;;;;;;;3.73;1.70;;;15.90;99.90;;;;;;5094624;28;20692;-73
2023/07/02 05:59:45;;;;;;;2.87;2.33;;;16.00;99.90;;;;;;5083781;28;20632;-73
2023/07/02 06:02:12;;;;;;;3.50;2.70;;;16.20;99.90;;;;;;5096238;28;21224;-73
2023/07/02 06:04:39;;;;;;;3.40;2.20;;;16.30;99.90;;;;;;5094795;28;20720;-73
2023/07/02 06:07:06;;;;;;;2.73;2.07;;;16.50;99.90;;;;;;5087697;28;20731;-73
2023/07/02 06:09:33;;;;;;;1.90;1.70;;;16.60;99.90;;;;;;5092828;28;20728;-73
2023/07/02 06:11:59;;;;;;;2.70;2.43;;;16.60;99.90;;;;;;5091255;28;20670;-73
2023/07/02 06:14:28;;;;;;;3.17;2.23;;;16.60;99.90;;;;;;5101243;28;20627;-73
2023/07/02 06:16:57;;;;;;;3.13;2.87;;;16.60;99.90;;;;;;5096527;28;20648;-74
2023/07/02 06:19:23;;;;;;;3.67;2.63;;;16.60;99.90;;;;;;5092690;28;20681;-73
2023/07/02 06:21:50;;;;;;;2.70;2.13;;;16.60;99.90;;;;;;5093117;28;20641;-72
2023/07/02 06:24:17;;;;;;;2.93;2.43;;;16.70;99.90;;;;;;5099671;28;20633;-72
2023/07/02 06:26:44;;;;;;;2.97;2.27;;;16.80;99.90;;;;;;5097730;28;20651;-73
2023/07/02 06:29:12;;;;;;;3.03;2.10;;;16.90;99.90;;;;;;5085993;28;20645;-72
2023/07/02 06:31:40;;;;;;;4.77;2.97;;;16.90;99.90;;;;;;5089865;28;21000;-73
2023/07/02 06:34:08;;;;;;;2.70;2.20;;;17.00;99.90;;;;;;5085976;28;20620;-72
2023/07/02 06:36:35;;;;;;;3.03;2.13;;;17.10;99.90;;;;;;5091936;28;20660;-73
2023/07/02 06:39:02;;;;;;;3.60;2.87;;;17.10;99.90;;;;;;5090639;28;20625;-72
2023/07/02 06:41:29;;;;;;;4.03;2.33;;;17.10;99.90;;;;;;5091513;28;20649;-73
2023/07/02 06:43:56;;;;;;;5.20;3.50;;;17.00;99.90;;;;;;5101219;28;20690;-73
2023/07/02 06:46:23;;;;;;;3.20;2.90;;;17.10;99.90;;;;;;5090565;28;20629;-73
2023/07/02 06:48:51;;;;;;;5.57;2.87;;;17.20;99.70;;;;;;5086653;28;21054;-72
2023/07/02 06:51:18;;;;;;;3.60;3.10;;;17.20;98.90;;;;;;5093245;28;20740;-74
2023/07/02 06:53:45;;;;;;;6.60;4.50;;;17.10;98.70;;;;;;5091394;28;20649;-72
2023/07/02 06:56:12;;;;;;;3.30;3.00;;;17.10;99.20;;;;;;5096205;28;21487;-73
2023/07/02 06:58:41;;;;;;;3.60;2.93;;;17.30;99.10;;;;;;5092404;28;20624;-72
2023/07/02 07:01:08;;;;;;;4.63;3.20;;;17.50;99.80;;;;;;5094835;28;21008;-73
2023/07/02 07:03:35;;;;;;;4.17;3.57;;;17.70;99.30;;;;;;5092046;28;20950;-72
2023/07/02 07:06:04;;;;;;;5.80;3.97;;;17.80;99.00;;;;;;5093678;28;20654;-72
2023/07/02 07:08:30;;;;;;;5.77;4.13;;;17.90;98.10;;;;;;5089214;28;20635;-73
2023/07/02 07:10:57;;;;;;;4.63;3.37;;;17.90;98.00;;;;;;5090402;28;20647;-72
2023/07/02 07:13:24;;;;;;;6.80;4.68;;;17.60;97.20;;;;;;5093291;28;20812;-71
2023/07/02 07:15:51;;;;;;;5.73;4.23;;;17.60;97.70;;;;;;5096166;28;20310;-73
2023/07/02 07:18:18;;;;;;;6.67;4.50;;;17.70;96.70;;;;;;5093348;28;20720;-72
2023/07/02 07:20:45;;;;;;;5.67;3.20;;;17.80;97.30;;;;;;5093764;28;20640;-71
2023/07/02 07:23:13;;;;;;;4.60;3.47;;;18.00;97.00;;;;;;5099747;28;21076;-72
2023/07/02 07:25:40;;;;;;;3.70;3.20;;;18.20;96.80;;;;;;5091153;28;20748;-73
2023/07/02 07:28:06;;;;;;;6.27;4.70;;;18.30;96.90;;;;;;5090032;28;20627;-73
2023/07/02 07:30:33;;;;;;;6.50;4.53;;;18.40;96.20;;;;;;5089314;28;20710;-73
2023/07/02 07:33:00;;;;;;;7.37;3.40;;;18.40;95.10;;;;;;5091934;28;20641;-73
2023/07/02 07:35:27;;;;;;;6.43;4.67;;;18.50;95.70;;;;;;5094373;28;20745;-73
2023/07/02 07:37:53;;;;;;;5.83;4.57;;;18.60;94.90;;;;;;5089416;28;20625;-73
2023/07/02 07:40:22;;;;;;;7.00;4.27;;;18.70;95.00;;;;;;5089913;28;20621;-73
2023/07/02 07:42:48;;;;;;;4.33;3.40;;;18.90;94.90;;;;;;5097368;28;20621;-73
2023/07/02 07:45:15;;;;;;;4.97;3.90;;;18.90;93.90;;;;;;5090303;28;20732;-73
2023/07/02 07:47:42;;;;;;;5.70;4.07;;;18.80;93.90;;;;;;5092705;28;20631;-74
2023/07/02 07:50:10;;;;;;;8.23;4.17;;;18.90;93.40;;;;;;5089280;28;20624;-75
2023/07/02 07:52:39;;;;;;;6.20;4.00;;;19.10;93.60;;;;;;5099380;28;20674;-74
2023/07/02 07:55:07;;;;;;;7.20;4.47;;;19.00;92.90;;;;;;5089742;28;21062;-75
2023/07/02 07:57:35;;;;;;;4.93;4.00;;;19.10;93.00;;;;;;5090593;28;20617;-75
2023/07/02 08:00:04;;;;;;;6.53;4.87;;;19.10;92.80;;;;;;5084358;28;20631;-74
2023/07/02 08:02:30;;;;;;;6.60;4.97;;;18.90;92.30;;;;;;5096913;28;20624;-74
2023/07/02 08:04:57;;;;;;;6.53;4.23;;;19.00;92.00;;;;;;5090363;28;20625;-74
2023/07/02 08:07:24;;;;;;;5.20;4.70;;;19.20;91.80;;;;;;5088017;28;20659;-74
2023/07/02 08:09:51;;;;;;;4.80;4.00;;;19.30;91.90;;;;;;5091000;28;20711;-74
2023/07/02 08:12:18;;;;;;;7.27;4.03;;;19.50;91.20;;;;;;5094045;28;20649;-74
2023/07/02 08:14:46;;;;;;;8.57;4.80;;;19.30;90.70;;;;;;5096798;28;20724;-74
2023/07/02 08:17:15;;;;;;;8.90;4.53;;;19.20;91.50;;;;;;5098275;28;20654;-74
2023/07/02 08:19:44;;;;;;;6.77;5.43;;;19.00;90.80;;;;;;5093347;28;21056;-73
2023/07/02 08:22:14;;;;;;;7.13;5.00;;;19.20;90.70;;;;;;5093478;28;20713;-74
2023/07/02 08:24:40;;;;;;;8.47;4.57;;;19.40;90.60;;;;;;5085516;28;20721;-74
2023/07/02 08:27:13;;;;;;;8.93;5.27;;;19.60;91.30;;;;;;5093360;28;20659;-73
2023/07/02 08:29:40;;;;;;;10.73;5.83;;;19.80;90.00;;;;;;5094471;28;20633;-74
2023/07/02 08:32:11;;;;;;;7.20;5.03;;;19.80;88.20;;;;;;5093703;28;21071;-74
2023/07/02 08:34:38;;;;;;;9.20;4.57;;;19.80;88.80;;;;;;5093700;28;20699;-73
2023/07/02 08:37:05;;;;;;;6.87;4.87;;;19.80;90.20;;;;;;5101062;28;20682;-76
2023/07/02 08:39:31;;;;;;;10.47;4.97;;;19.90;89.00;;;;;;5092217;28;20712;-74
2023/07/02 08:41:58;;;;;;;8.13;5.20;;;19.60;87.80;;;;;;5094433;28;20648;-75
2023/07/02 08:44:27;;;;;;;8.03;4.77;;;19.40;87.90;;;;;;5093194;28;21038;-77
2023/07/02 08:46:56;;;;;;;7.87;5.30;;;19.30;88.30;;;;;;5099430;28;20646;-77
2023/07/02 08:49:24;;;;;;;8.00;5.27;;;19.30;88.10;;;;;;5097130;28;20673;-76
2023/07/02 08:51:51;;;;;;;5.80;4.17;;;19.60;87.60;;;;;;5092828;28;20653;-77
2023/07/02 08:54:18;;;;;;;5.30;4.10;;;20.00;88.30;;;;;;5092818;28;20653;-77
2023/07/02 08:56:46;;;;;;;8.90;5.00;;;20.10;87.20;;;;;;5101736;28;20674;-77
2023/07/02 08:59:13;;;;;;;6.23;5.00;;;20.10;85.20;;;;;;5084607;28;21141;-77
2023/07/02 09:01:47;;;;;;;6.03;5.43;;;20.00;86.50;;;;;;5101908;28;20640;-77
2023/07/02 09:04:19;;;;;;;7.90;5.10;;;20.20;86.70;;;;;;5093067;28;20655;-75
2023/07/02 09:06:48;;;;;;;6.30;5.07;;;20.50;85.20;;;;;;5092343;28;20648;-75
2023/07/02 09:09:15;;;;;;;6.23;4.73;;;20.70;81.70;;;;;;5090820;28;20632;-75
2023/07/02 09:11:49;;;;;;;4.73;4.20;;;20.90;82.40;;;;;;5087052;28;20644;-74
2023/07/02 09:14:26;;;;;;;7.60;5.20;;;20.80;82.80;;;;;;5086359;28;20648;-75
2023/07/02 09:17:03;;;;;;;7.07;4.40;;;20.50;79.60;;;;;;5091725;28;21003;-75
2023/07/02 09:19:30;;;;;;;6.33;4.00;;;20.60;80.80;;;;;;5096052;28;20623;-75
2023/07/02 09:22:00;;;;;;;6.10;4.33;;;20.80;80.30;;;;;;5091976;28;20637;-74
2023/07/02 09:24:28;;;;;;;4.97;4.20;;;21.10;80.20;;;;;;5090164;28;21173;-73
2023/07/02 09:26:56;;;;;;;15.77;5.17;;;21.20;79.00;;;;;;5099067;28;20657;-73
2023/07/02 09:29:24;;;;;;;8.43;4.50;;;21.40;77.30;;;;;;5098572;28;20632;-74
2023/07/02 09:31:52;;;;;;;5.43;4.40;;;21.60;75.80;;;;;;5089369;28;21007;-73
2023/07/02 09:34:19;;;;;;;6.27;4.83;;;21.60;75.20;;;;;;5089905;28;20656;-73
2023/07/02 09:36:45;;;;;;;5.17;4.50;;;21.70;76.40;;;;;;5091978;28;20652;-73
2023/07/02 09:39:15;;;;;;;4.40;3.93;;;22.00;77.10;;;;;;5089286;28;20625;-73
2023/07/02 09:41:43;;;;;;;5.13;4.37;;;22.10;74.90;;;;;;5091455;28;20735;-73
2023/07/02 09:44:11;;;;;;;7.07;5.60;;;22.40;75.50;;;;;;5091305;28;20626;-73
2023/07/02 09:46:43;;;;;;;6.17;5.10;;;22.20;72.10;;;;;;5096594;28;21020;-73
2023/07/02 09:49:14;;;;;;;6.20;4.57;;;21.80;73.30;;;;;;5086785;28;20628;-73
2023/07/02 09:51:42;;;;;;;8.57;5.00;;;21.50;74.50;;;;;;5097504;28;20698;-73
2023/07/02 09:54:09;;;;;;;6.73;5.10;;;21.20;74.80;;;;;;5098421;28;20669;-74
2023/07/02 09:56:38;;;;;;;8.27;4.87;;;21.10;76.40;;;;;;5093742;28;20724;-74
2023/07/02 09:59:04;;;;;;;6.23;5.27;;;21.10;75.10;;;;;;5082963;28;20677;-73
2023/07/02 10:01:31;;;;;;;7.07;4.70;;;21.30;76.60;;;;;;5097692;28;21284;-73
2023/07/02 10:03:58;;;;;;;5.07;4.50;;;21.60;76.80;;;;;;5094644;28;20619;-74
2023/07/02 10:06:25;;;;;;;7.43;4.90;;;21.70;74.30;;;;;;5094020;28;20645;-74
2023/07/02 10:08:55;;;;;;;10.50;6.63;;;21.70;75.10;;;;;;5093325;28;20741;-74
2023/07/02 10:11:33;;;;;;;6.07;5.33;;;21.80;73.40;;;;;;5092692;28;20231;-75
2023/07/02 10:14:01;;;;;;;10.70;6.83;;;21.70;74.50;;;;;;5094751;28;21009;-75
2023/07/02 10:17:34;;;;;;;7.87;6.37;;;21.90;70.80;;;;;;5090175;28;20675;-74
2023/07/02 10:20:12;;;;;;;9.03;5.70;;;21.70;70.60;;;;;;5084828;28;20631;-75
2023/07/02 10:22:52;;;;;;;9.67;6.87;;;21.90;67.90;;;;;;5084393;28;20637;-73
2023/07/02 10:25:25;;;;;;;8.37;6.97;;;22.30;71.30;;;;;;5099128;28;20726;-74
2023/07/02 10:27:52;;;;;;;9.87;5.90;;;22.70;68.70;;;;;;5090788;28;20615;-74
2023/07/02 10:30:31;;;;;;;7.67;5.83;;;23.00;70.80;;;;;;5089897;28;20636;-74
2023/07/02 10:33:08;;;;;;;8.90;5.73;;;23.50;67.70;;;;;;5085013;28;20626;-75
2023/07/02 10:35:35;;;;;;;7.33;5.00;;;23.30;68.40;;;;;;5089975;28;20642;-75
2023/07/02 10:38:02;;;;;;;7.17;5.80;;;23.10;66.70;;;;;;5092015;28;20627;-75
2023/07/02 10:40:30;;;;;;;9.97;5.97;;;23.40;64.40;;;;;;5089638;28;20648;-75
2023/07/02 10:42:57;;;;;;;7.70;5.37;;;23.80;68.10;;;;;;5090957;28;20629;-75
2023/07/02 10:45:34;;;;;;;10.07;6.40;;;23.80;66.40;;;;;;5089875;28;20757;-75
2023/07/02 10:48:03;;;;;;;6.23;5.63;;;23.80;66.20;;;;;;5088656;28;20807;-74
2023/07/02 10:50:31;;;;;;;6.23;4.87;;;23.60;65.20;;;;;;5088833;28;20978;-75
2023/07/02 10:52:58;;;;;;;7.97;5.50;;;23.60;66.10;;;;;;5090486;28;21218;-75
2023/07/02 10:55:27;;;;;;;9.60;6.07;;;23.20;64.00;;;;;;5094239;28;21016;-75
2023/07/02 10:58:04;;;;;;;7.93;6.37;;;23.00;65.60;;;;;;5093571;28;20676;-74
2023/07/02 11:00:32;;;;;;;7.70;5.67;;;23.20;65.70;;;;;;5083467;28;20758;-75
2023/07/02 11:03:00;;;;;;;8.57;5.67;;;23.80;67.50;;;;;;5091881;28;20631;-75
2023/07/02 11:05:27;;;;;;;10.70;6.97;;;24.20;64.60;;;;;;5089103;28;20646;-75
2023/07/02 11:07:57;;;;;;;7.03;5.57;;;24.30;65.20;;;;;;5093473;28;20627;-75
2023/07/02 11:10:24;;;;;;;9.27;6.07;;;24.40;66.70;;;;;;5088246;28;20646;-75
2023/07/02 11:12:51;;;;;;;8.37;6.30;;;24.70;60.40;;;;;;5091876;28;20789;-74
2023/07/02 11:15:18;;;;;;;7.07;5.83;;;24.30;61.10;;;;;;5089326;28;20995;-75
2023/07/02 11:17:47;;;;;;;5.40;4.30;;;24.00;59.20;;;;;;5087604;28;20624;-74
2023/07/02 11:20:15;;;;;;;6.37;4.60;;;24.10;59.40;;;;;;5087419;28;20632;-74
2023/07/02 11:22:42;;;;;;;6.50;4.60;;;23.90;58.50;;;;;;5091870;28;20636;-74
2023/07/02 11:25:18;;;;;;;8.07;6.63;;;23.70;58.00;;;;;;5095134;28;20663;-75
2023/07/02 11:27:45;;;;;;;6.80;5.10;;;23.80;59.40;;;;;;5095567;28;20675;-74
2023/07/02 11:30:12;;;;;;;9.93;4.90;;;24.10;59.60;;;;;;5088632;28;21157;-75
2023/07/02 11:32:52;;;;;;;8.40;5.43;;;24.80;60.20;;;;;;5089479;28;20626;-74
2023/07/02 11:35:19;;;;;;;7.60;5.00;;;25.80;58.10;;;;;;5092276;28;20656;-74
2023/07/02 11:37:46;;;;;;;8.30;4.50;;;26.40;55.90;;;;;;5092447;28;21199;-73
2023/07/02 11:40:14;;;;;;;6.23;5.03;;;26.70;56.90;;;;;;5089093;28;20668;-73
2023/07/02 11:42:41;;;;;;;6.10;4.97;;;27.00;57.50;;;;;;5090082;28;20621;-73
2023/07/02 11:45:09;;;;;;;8.00;5.70;;;27.00;56.30;;;;;;5090114;28;20621;-73
2023/07/02 11:47:36;;;;;;;7.00;4.60;;;26.90;54.30;;;;;;5095871;28;20634;-73
2023/07/02 11:50:05;;;;;;;6.80;5.40;;;27.30;53.90;;;;;;5093511;28;20629;-73
2023/07/02 11:52:31;;;;;;;7.40;5.30;;;27.00;54.20;;;;;;5094785;28;20622;-73
2023/07/02 11:54:58;;;;;;;9.53;6.70;;;27.90;53.30;;;;;;5095301;28;20662;-73
2023/07/02 11:57:25;;;;;;;7.13;5.23;;;27.40;54.40;;;;;;5097076;28;20647;-73
2023/07/02 11:59:52;;;;;;;7.10;5.57;;;26.90;52.70;;;;;;5093363;28;20732;-73
2023/07/02 12:02:19;;;;;;;6.63;5.07;;;27.10;53.90;;;;;;5084997;28;20639;-73
2023/07/02 12:04:46;;;;;;;5.97;5.30;;;27.60;51.50;;;;;;5092527;28;20620;-73
2023/07/02 12:07:15;;;;;;;7.23;4.90;;;27.40;50.90;;;;;;5097089;28;20646;-73
2023/07/02 12:09:41;;;;;;;6.30;5.50;;;26.90;53.50;;;;;;5094259;28;20620;-73
2023/07/02 12:12:09;;;;;;;5.40;4.87;;;27.40;54.10;;;;;;5096262;28;20643;-73
2023/07/02 12:14:36;;;;;;;8.03;5.53;;;27.90;54.10;;;;;;5093942;28;20760;-73
2023/07/02 12:17:04;;;;;;;8.67;5.07;;;27.80;49.90;;;;;;5093620;28;20679;-73
2023/07/02 12:19:30;;;;;;;6.23;5.40;;;28.20;50.60;;;;;;5092276;28;21042;-73
2023/07/02 12:21:57;;;;;;;6.20;5.60;;;28.50;50.20;;;;;;5093473;28;20640;-74
2023/07/02 12:24:25;;;;;;;6.57;5.10;;;28.30;50.70;;;;;;5092240;28;20654;-73
2023/07/02 12:26:52;;;;;;;6.37;5.10;;;28.30;51.60;;;;;;5093541;28;20666;-73
2023/07/02 12:29:19;;;;;;;6.00;5.10;;;29.50;50.00;;;;;;5096850;28;20624;-72
2023/07/02 12:31:46;;;;;;;5.80;4.97;;;29.70;47.70;;;;;;5091675;28;20643;-72
2023/07/02 12:34:12;;;;;;;8.97;5.17;;;30.80;45.90;;;;;;5095863;28;20644;-72
2023/07/02 12:36:39;;;;;;;6.53;4.97;;;30.80;46.50;;;;;;5095214;28;20642;-72
2023/07/02 12:39:06;;;;;;;6.20;5.47;;;30.70;45.10;;;;;;5093473;28;20667;-72
2023/07/02 12:41:34;;;;;;;9.50;5.80;;;31.80;44.80;;;;;;5099000;28;20652;-72
2023/07/02 12:44:01;;;;;;;6.07;5.13;;;31.40;43.70;;;;;;5091323;28;20623;-72
2023/07/02 12:46:28;;;;;;;5.73;5.10;;;31.00;43.80;;;;;;5091864;28;20650;-72
2023/07/02 12:48:55;;;;;;;5.90;4.63;;;31.80;41.90;;;;;;5098904;28;20638;-72